YPGV/GOV METAR and TAF weather

Enter ICAO airport designator
Station Type Date Time Source
YPGV METAR 2021/07/28 05:00 UTC NOAA

YPGV 280500Z 12011KT 9999 SCT020 29/22 Q1012


Station Type Date Time Source
YPGV Decoded METAR 2021/07/28 05:00 UTC NOAA

Station name not available
Jul 28, 2021 - 01:00 AM EDT / 2021.07.28 0500 UTC
Wind: from the ESE (120 degrees) at 13 MPH (11 KT):0
Visibility: greater than 7 mile(s):0
Sky conditions: partly cloudy
Temperature: 84 F (29 C)
Dew Point: 71 F (22 C)
Relative Humidity: 65%
Pressure (altimeter): 29.88 in. Hg (1012 hPa)
ob: YPGV 280500Z 12011KT 9999 SCT020 29/22 Q1012
cycle: 5

Station Type Date Time Source
YPGV TAF 2021/07/28 02:00 UTC NOAA

TAF YPGV 280119Z 2802/2814 12012KT 9999 SCT020
FM280900 13007KT 9999 SCT018

Example: see airport list